createdAt,value
2019-04-04T00:01:32.461Z,99829.59
2019-04-04T00:04:01.637Z,99819.78
2019-04-04T00:06:30.602Z,99807.35
2019-04-04T00:09:00.081Z,99803.47
2019-04-04T00:11:30.448Z,99801.55
2019-04-04T00:13:59.446Z,99804.00
2019-04-04T00:16:28.436Z,99803.39
2019-04-04T00:19:02.421Z,99797.94
2019-04-04T00:21:32.049Z,99802.06
2019-04-04T00:24:02.222Z,99809.27
2019-04-04T00:26:31.250Z,99809.57
2019-04-04T00:29:01.787Z,99809.57
2019-04-04T00:31:30.890Z,99806.42
2019-04-04T00:33:59.908Z,99805.92
2019-04-04T00:36:28.911Z,99805.92
2019-04-04T00:38:58.029Z,99804.64
2019-04-04T00:41:27.096Z,99796.46
2019-04-04T00:43:56.231Z,99795.41
2019-04-04T00:46:25.231Z,99788.69
2019-04-04T00:48:54.335Z,99800.55
2019-04-04T00:51:23.405Z,99795.06
2019-04-04T00:53:52.378Z,99795.06
2019-04-04T00:56:21.406Z,99766.22
2019-04-04T00:58:52.072Z,99757.31
2019-04-04T01:01:21.139Z,99776.53
2019-04-04T01:03:50.158Z,99792.18
2019-04-04T01:06:19.250Z,99792.18
2019-04-04T01:08:48.233Z,99792.86
2019-04-04T01:11:18.297Z,99772.11
2019-04-04T01:13:48.061Z,99772.11
2019-04-04T01:16:17.052Z,99800.23
2019-04-04T01:18:46.067Z,99797.25
2019-04-04T01:21:15.046Z,99804.13
2019-04-04T01:23:44.194Z,99806.52
2019-04-04T01:26:13.230Z,99809.66
2019-04-04T01:28:42.239Z,99803.73
2019-04-04T01:31:11.281Z,99803.73
2019-04-04T01:33:42.007Z,99801.59
2019-04-04T01:36:10.989Z,99806.88
2019-04-04T01:38:40.015Z,99802.01
2019-04-04T01:41:09.083Z,99802.01
2019-04-04T01:43:40.061Z,99803.42
2019-04-04T01:46:09.015Z,99788.52
2019-04-04T01:48:38.041Z,99779.95
2019-04-04T01:51:07.913Z,99779.95
2019-04-04T01:53:37.289Z,99780.59
2019-04-04T01:56:07.017Z,99788.63
2019-04-04T01:58:36.122Z,99793.80
2019-04-04T02:01:05.271Z,99792.65
2019-04-04T02:03:34.324Z,99792.65
2019-04-04T02:06:03.524Z,99794.27
2019-04-04T02:08:32.521Z,99784.90
2019-04-04T02:11:01.541Z,99784.90
2019-04-04T02:13:30.607Z,99773.02
2019-04-04T02:15:59.704Z,99764.30
2019-04-04T02:18:28.783Z,99770.05
2019-04-04T02:20:58.452Z,99771.22
2019-04-04T02:23:27.496Z,99770.16
2019-04-04T02:25:56.482Z,99770.16
2019-04-04T02:28:25.514Z,99749.87
2019-04-04T02:30:54.770Z,99740.30
2019-04-04T02:33:23.757Z,99746.44
2019-04-04T02:35:52.870Z,99746.44
2019-04-04T02:38:21.872Z,99737.30
2019-04-04T02:40:50.912Z,99738.36
2019-04-04T02:43:19.942Z,99741.48
2019-04-04T02:45:48.967Z,99749.05
2019-04-04T02:48:18.074Z,99749.05
2019-04-04T02:50:47.066Z,99745.23
2019-04-04T02:53:19.230Z,99753.19
2019-04-04T02:55:46.867Z,99740.26
2019-04-04T02:58:15.932Z,99740.26
2019-04-04T03:00:44.937Z,99734.89
2019-04-04T03:03:14.175Z,99740.58
2019-04-04T03:05:43.386Z,99740.58
2019-04-04T03:08:14.280Z,99742.74
2019-04-04T03:10:47.710Z,99736.08
2019-04-04T03:13:14.302Z,99736.08
2019-04-04T03:15:47.391Z,99736.04
2019-04-04T03:18:14.215Z,99734.05
2019-04-04T03:20:43.240Z,99732.02
2019-04-04T03:23:12.234Z,99725.91
2019-04-04T03:25:41.220Z,99718.98
2019-04-04T03:28:10.242Z,99717.35
2019-04-04T03:30:39.213Z,99709.19
2019-04-04T03:33:10.242Z,99712.88
2019-04-04T03:35:39.276Z,99717.72
2019-04-04T03:38:08.304Z,99712.23
2019-04-04T03:40:37.262Z,99712.23
2019-04-04T03:43:06.371Z,99714.58
2019-04-04T03:45:35.470Z,99721.71
2019-04-04T03:48:04.646Z,99721.80
2019-04-04T03:50:34.515Z,99718.55
2019-04-04T03:53:03.478Z,99709.84
2019-04-04T03:55:32.528Z,99709.84
2019-04-04T03:58:01.533Z,99715.94
2019-04-04T04:00:31.712Z,99717.70
2019-04-04T04:03:01.025Z,99723.22
2019-04-04T04:05:34.674Z,99723.36
2019-04-04T04:08:01.876Z,99733.36
2019-04-04T04:10:33.400Z,99742.66
2019-04-04T04:13:01.723Z,99741.06
2019-04-04T04:15:30.767Z,99722.87
2019-04-04T04:17:59.807Z,99736.42
2019-04-04T04:20:29.081Z,99736.42
2019-04-04T04:22:58.269Z,99730.44
2019-04-04T04:25:27.332Z,99728.88
2019-04-04T04:27:56.624Z,99732.45
2019-04-04T04:30:25.566Z,99739.63
2019-04-04T04:32:57.145Z,99741.36
2019-04-04T04:35:25.456Z,99740.83
2019-04-04T04:37:54.452Z,99740.83
2019-04-04T04:40:23.526Z,99742.22
2019-04-04T04:42:52.493Z,99746.19
2019-04-04T04:45:21.553Z,99745.02
2019-04-04T04:47:50.539Z,99735.96
2019-04-04T04:50:19.520Z,99738.88
2019-04-04T04:52:48.653Z,99745.73
2019-04-04T04:55:17.743Z,99738.45
2019-04-04T04:57:46.717Z,99738.14
2019-04-04T05:00:16.765Z,99746.00
2019-04-04T05:02:45.881Z,99746.00
2019-04-04T05:05:15.069Z,99744.68
2019-04-04T05:07:44.039Z,99744.68
2019-04-04T05:10:15.122Z,99748.55
2019-04-04T05:12:44.250Z,99747.45
2019-04-04T05:15:13.345Z,99745.38
2019-04-04T05:17:42.589Z,99745.38
2019-04-04T05:20:12.993Z,99741.72
2019-04-04T05:22:42.054Z,99744.03
2019-04-04T05:25:11.214Z,99747.30
2019-04-04T05:27:40.309Z,99747.30
2019-04-04T05:30:09.477Z,99750.69
2019-04-04T05:32:38.474Z,99754.52
2019-04-04T05:35:08.390Z,99745.82
2019-04-04T05:37:38.249Z,99749.81
2019-04-04T05:40:08.800Z,99748.76
2019-04-04T05:42:37.781Z,99746.05
2019-04-04T05:45:07.241Z,99748.63
2019-04-04T05:47:36.366Z,99754.24
2019-04-04T05:50:06.618Z,99757.92
2019-04-04T05:52:35.871Z,99764.23
2019-04-04T05:55:05.117Z,99766.64
2019-04-04T05:57:34.254Z,99777.77
2019-04-04T06:00:04.931Z,99785.16
2019-04-04T06:02:33.924Z,99785.16
2019-04-04T06:05:02.999Z,99779.47
2019-04-04T06:07:32.100Z,99786.67
2019-04-04T06:10:01.193Z,99789.92
2019-04-04T06:12:30.204Z,99794.86
2019-04-04T06:15:00.551Z,99794.86
2019-04-04T06:17:30.021Z,99793.09
2019-04-04T06:20:01.302Z,99787.61
2019-04-04T06:22:30.335Z,99783.38
2019-04-04T06:24:59.930Z,99782.77
2019-04-04T06:27:29.003Z,99782.20
2019-04-04T06:29:59.926Z,99787.65
2019-04-04T06:32:29.020Z,99777.98
2019-04-04T06:35:01.342Z,99777.98
2019-04-04T06:37:30.355Z,99786.91
2019-04-04T06:40:05.933Z,99786.91
2019-04-04T06:42:36.243Z,99795.89
2019-04-04T06:45:07.132Z,99788.83
2019-04-04T06:47:36.156Z,99797.89
2019-04-04T06:50:08.098Z,99797.89
2019-04-04T06:52:37.567Z,99807.79
2019-04-04T06:55:08.298Z,99807.79
2019-04-04T06:57:37.655Z,99822.96
2019-04-04T07:00:08.301Z,99822.96
2019-04-04T07:02:38.032Z,99831.38
2019-04-04T07:05:10.604Z,99823.73
2019-04-04T07:07:43.110Z,99823.73
2019-04-04T07:10:11.010Z,99814.94
2019-04-04T07:12:39.993Z,99814.17
2019-04-04T07:15:12.477Z,99818.13
2019-04-04T07:17:41.309Z,99807.78
2019-04-04T07:20:10.706Z,99808.47
2019-04-04T07:22:39.707Z,99809.95
2019-04-04T07:25:09.037Z,99806.16
2019-04-04T07:27:38.199Z,99808.90
2019-04-04T07:30:07.743Z,99799.81
2019-04-04T07:32:36.786Z,99800.97
2019-04-04T07:35:06.413Z,99805.53
2019-04-04T07:37:35.465Z,99801.27
2019-04-04T07:40:04.768Z,99813.41
2019-04-04T07:42:33.817Z,99815.41
2019-04-04T07:45:02.884Z,99818.60
2019-04-04T07:47:31.965Z,99806.45
2019-04-04T07:50:01.157Z,99811.59
2019-04-04T07:52:32.854Z,99811.59
2019-04-04T07:55:00.902Z,99817.72
2019-04-04T07:57:30.398Z,99817.72
2019-04-04T07:59:59.789Z,99820.64
2019-04-04T08:02:28.771Z,99826.82
2019-04-04T08:04:57.816Z,99822.29
2019-04-04T08:07:26.883Z,99823.42
2019-04-04T08:09:55.865Z,99822.45
2019-04-04T08:12:25.040Z,99819.83
2019-04-04T08:14:54.046Z,99819.23
2019-04-04T08:17:23.170Z,99827.28
2019-04-04T08:19:59.659Z,99825.04
2019-04-04T08:22:23.016Z,99829.42
2019-04-04T08:24:52.162Z,99829.42
2019-04-04T08:27:21.170Z,99834.44
2019-04-04T08:29:50.206Z,99835.47
2019-04-04T08:32:19.237Z,99842.48
2019-04-04T08:34:48.371Z,99845.81
2019-04-04T08:37:17.478Z,99839.86
2019-04-04T08:39:46.540Z,99845.56
2019-04-04T08:42:15.628Z,99850.08
2019-04-04T08:44:44.686Z,99850.08
2019-04-04T08:47:13.775Z,99859.64
2019-04-04T08:49:42.813Z,99861.25
2019-04-04T08:52:16.904Z,99872.61
2019-04-04T08:54:42.573Z,99894.27
2019-04-04T08:57:11.568Z,99894.27
2019-04-04T08:59:40.629Z,99906.34
2019-04-04T09:02:09.640Z,99906.34
2019-04-04T09:04:38.714Z,99910.05
2019-04-04T09:07:07.703Z,99913.55
2019-04-04T09:09:36.738Z,99904.50
2019-04-04T09:12:05.851Z,99904.50
2019-04-04T09:14:35.004Z,99906.44
2019-04-04T09:17:04.137Z,99905.52
2019-04-04T09:19:33.154Z,99896.48
2019-04-04T09:22:02.186Z,99885.95
2019-04-04T09:24:31.364Z,99886.30
2019-04-04T09:27:00.511Z,99880.84
2019-04-04T09:29:29.501Z,99876.73
2019-04-04T09:32:01.321Z,99878.77
2019-04-04T09:34:30.319Z,99881.48
2019-04-04T09:36:59.450Z,99884.31
2019-04-04T09:39:28.474Z,99882.03
2019-04-04T09:41:57.662Z,99879.03
2019-04-04T09:44:26.633Z,99894.09
2019-04-04T09:47:05.330Z,99898.55
2019-04-04T09:49:26.894Z,99908.72
2019-04-04T09:51:57.404Z,99921.77
2019-04-04T09:56:56.071Z,99912.21
2019-04-04T09:59:25.043Z,99907.16
2019-04-04T10:01:54.104Z,99907.16
2019-04-04T10:04:23.156Z,99904.25
2019-04-04T10:06:52.177Z,99894.09
2019-04-04T10:09:21.243Z,99887.66
2019-04-04T10:11:50.305Z,99882.84
2019-04-04T10:14:24.819Z,99882.84
2019-04-04T10:16:55.072Z,99883.22
2019-04-04T10:19:24.134Z,99879.03
2019-04-04T10:21:53.228Z,99879.03
2019-04-04T10:24:22.226Z,99886.21
2019-04-04T10:26:51.278Z,99887.86
2019-04-04T10:29:20.357Z,99890.92
2019-04-04T10:31:49.402Z,99890.92
2019-04-04T10:34:18.407Z,99899.84
2019-04-04T10:36:47.466Z,99899.84
2019-04-04T10:39:28.271Z,99904.14
2019-04-04T10:41:47.392Z,99904.14
2019-04-04T10:44:16.427Z,99897.97
2019-04-04T10:46:45.559Z,99906.08
2019-04-04T10:49:14.596Z,99902.71
2019-04-04T10:51:43.576Z,99902.71
2019-04-04T10:54:12.592Z,99892.34
2019-04-04T10:56:41.712Z,99900.28
2019-04-04T10:59:10.773Z,99906.33
2019-04-04T11:01:39.801Z,99899.96
2019-04-04T11:04:08.832Z,99899.05
2019-04-04T11:06:37.946Z,99903.80
2019-04-04T11:09:08.674Z,99894.33
2019-04-04T11:11:37.682Z,99878.74
2019-04-04T11:14:06.781Z,99886.72
2019-04-04T11:16:35.856Z,99878.52
2019-04-04T11:19:06.322Z,99876.55
2019-04-04T11:21:35.303Z,99870.02
2019-04-04T11:24:04.503Z,99870.12
2019-04-04T11:26:33.467Z,99867.54
2019-04-04T11:29:02.480Z,99859.77
2019-04-04T11:31:31.536Z,99853.59
2019-04-04T11:34:00.591Z,99858.84
2019-04-04T11:36:29.674Z,99865.52
2019-04-04T11:39:04.094Z,99880.88
2019-04-04T11:41:34.780Z,99880.88
2019-04-04T11:44:03.924Z,99873.44
2019-04-04T11:46:32.984Z,99877.99
2019-04-04T11:49:02.066Z,99874.72
2019-04-04T11:51:31.070Z,99886.84
2019-04-04T11:54:00.075Z,99893.03
2019-04-04T11:56:29.522Z,99889.39
2019-04-04T11:58:58.695Z,99888.78
2019-04-04T12:01:28.491Z,99892.30
2019-04-04T12:03:57.613Z,99901.70
2019-04-04T12:06:26.691Z,99911.81
2019-04-04T12:08:55.800Z,99916.21
2019-04-04T12:11:24.800Z,99913.39
2019-04-04T12:16:22.073Z,99906.16
2019-04-04T12:18:51.168Z,99909.63
2019-04-04T12:21:20.321Z,99917.94
2019-04-04T12:23:51.452Z,99917.94
2019-04-04T12:26:20.295Z,99929.68
2019-04-04T12:28:49.342Z,99926.78
2019-04-04T12:31:18.328Z,99926.78
2019-04-04T12:33:47.300Z,99922.46
2019-04-04T12:36:24.546Z,99927.73
2019-04-04T12:38:47.146Z,99936.62
2019-04-04T12:41:16.160Z,99934.81
2019-04-04T12:43:45.247Z,99934.56
2019-04-04T12:46:14.275Z,99933.13
2019-04-04T12:48:43.427Z,99933.26
2019-04-04T12:51:12.598Z,99933.26
2019-04-04T12:53:41.679Z,99925.20
2019-04-04T12:56:10.825Z,99926.59
2019-04-04T12:58:39.965Z,99935.23
2019-04-04T13:01:09.074Z,99940.31
2019-04-04T13:03:38.108Z,99939.48
2019-04-04T13:06:07.282Z,99945.53
2019-04-04T13:08:36.291Z,99938.21
2019-04-04T13:11:05.531Z,99936.83
2019-04-04T13:13:34.569Z,99934.08
2019-04-04T13:16:03.664Z,99924.75
2019-04-04T13:18:32.650Z,99929.20
2019-04-04T13:21:01.835Z,99934.06
2019-04-04T13:23:30.930Z,99930.55
2019-04-04T13:25:59.948Z,99941.02
2019-04-04T13:28:29.070Z,99937.69
2019-04-04T13:30:58.246Z,99930.98
2019-04-04T13:33:27.259Z,99921.25
2019-04-04T13:35:56.934Z,99927.44
2019-04-04T13:38:25.896Z,99923.86
2019-04-04T13:40:54.966Z,99923.86
2019-04-04T13:43:23.996Z,99925.97
2019-04-04T13:45:53.072Z,99924.20
2019-04-04T13:48:22.241Z,99916.59
2019-04-04T13:50:51.365Z,99925.02
2019-04-04T13:53:20.965Z,99925.02
2019-04-04T13:55:50.232Z,99944.84
2019-04-04T13:58:21.910Z,99949.81
2019-04-04T14:00:50.174Z,99948.41
2019-04-04T14:03:19.283Z,99955.27
2019-04-04T14:05:48.286Z,99960.50
2019-04-04T14:08:17.405Z,99965.52
2019-04-04T14:10:57.651Z,99979.00
2019-04-04T14:13:17.369Z,99982.49
2019-04-04T14:15:46.556Z,99984.30
2019-04-04T14:18:38.085Z,99973.80
2019-04-04T14:21:03.560Z,99989.30
2019-04-04T14:23:27.658Z,99992.56
2019-04-04T14:25:59.551Z,99983.48
2019-04-04T14:28:28.558Z,99977.05
2019-04-04T14:31:01.294Z,99977.28
2019-04-04T14:33:30.388Z,99976.23
2019-04-04T14:35:59.403Z,99976.73
2019-04-04T14:38:28.429Z,99975.20
2019-04-04T14:41:10.192Z,99978.69
2019-04-04T14:43:30.039Z,99976.85
2019-04-04T14:45:59.214Z,99975.91
2019-04-04T14:48:28.332Z,99994.86
2019-04-04T14:50:58.478Z,100003.50
2019-04-04T14:53:27.623Z,100005.90
2019-04-04T14:55:56.784Z,99998.08
2019-04-04T14:58:25.871Z,100006.34
2019-04-04T15:00:54.982Z,100015.95
2019-04-04T15:03:24.008Z,100022.47
2019-04-04T15:05:53.079Z,100028.28
2019-04-04T15:08:22.285Z,100028.69
2019-04-04T15:10:52.491Z,100030.41
2019-04-04T15:13:21.822Z,100021.94
2019-04-04T15:16:12.596Z,100016.96
2019-04-04T15:18:41.789Z,100025.36
2019-04-04T15:21:11.089Z,100036.34
2019-04-04T15:23:40.212Z,100036.39
2019-04-04T15:26:09.884Z,100036.39
2019-04-04T15:28:39.109Z,100039.36
2019-04-04T15:31:08.241Z,100035.84
2019-04-04T15:33:37.430Z,100041.83
2019-04-04T15:36:07.862Z,100049.04
2019-04-04T15:38:36.896Z,100049.04
2019-04-04T15:41:06.168Z,100048.36
2019-04-04T15:43:35.224Z,100040.20
2019-04-04T15:46:04.432Z,100045.79
2019-04-04T15:48:33.449Z,100043.42
2019-04-04T15:51:02.605Z,100032.12
2019-04-04T15:53:31.757Z,100034.52
2019-04-04T15:56:03.285Z,100034.52
2019-04-04T15:58:32.265Z,100028.98
2019-04-04T16:01:01.414Z,100028.98
2019-04-04T16:03:30.411Z,100036.09
2019-04-04T16:05:59.570Z,100044.59
2019-04-04T16:08:28.590Z,100063.97
2019-04-04T16:10:59.734Z,100068.50
2019-04-04T16:13:28.501Z,100075.97
2019-04-04T16:15:57.688Z,100082.55
2019-04-04T16:18:26.779Z,100077.39
2019-04-04T16:20:55.818Z,100078.19
2019-04-04T16:23:24.965Z,100091.28
2019-04-04T16:25:58.170Z,100099.73
2019-04-04T16:28:27.149Z,100099.35
2019-04-04T16:30:56.246Z,100091.67
2019-04-04T16:33:26.581Z,100098.77
2019-04-04T16:35:55.692Z,100098.77
2019-04-04T16:38:24.781Z,100104.08
2019-04-04T16:40:53.966Z,100103.96
2019-04-04T16:43:23.072Z,100098.88
2019-04-04T16:45:52.127Z,100114.28
2019-04-04T16:48:21.212Z,100114.28
2019-04-04T16:50:50.318Z,100119.45
2019-04-04T16:53:19.400Z,100119.45
2019-04-04T16:55:48.449Z,100124.20
2019-04-04T16:58:17.636Z,100126.34
2019-04-04T17:00:46.774Z,100127.89
2019-04-04T17:03:15.881Z,100127.87
2019-04-04T17:05:45.066Z,100125.86
2019-04-04T17:08:14.230Z,100132.89
2019-04-04T17:10:43.284Z,100136.09
2019-04-04T17:13:12.421Z,100131.94
2019-04-04T17:15:41.603Z,100132.23
2019-04-04T17:18:10.676Z,100142.89
2019-04-04T17:20:39.720Z,100137.31
2019-04-04T17:23:08.859Z,100084.23
2019-04-04T17:25:37.861Z,100127.69
2019-04-04T17:28:06.884Z,100129.19
2019-04-04T17:30:36.073Z,100129.19
2019-04-04T17:33:05.595Z,100128.33
2019-04-04T17:35:34.886Z,100136.69
2019-04-04T17:38:09.305Z,100150.88
2019-04-04T17:40:38.597Z,100162.69
2019-04-04T17:43:07.626Z,100170.65
2019-04-04T17:45:36.954Z,100168.66
2019-04-04T17:48:06.093Z,100173.30
2019-04-04T17:50:35.678Z,100179.06
2019-04-04T17:53:05.418Z,100179.06
2019-04-04T17:55:34.683Z,100180.59
2019-04-04T17:58:03.902Z,100182.95
2019-04-04T18:00:33.002Z,100189.05
2019-04-04T18:03:02.005Z,100184.03
2019-04-04T18:05:31.103Z,100176.19
2019-04-04T18:08:01.668Z,100180.09
2019-04-04T18:10:31.079Z,100179.97
2019-04-04T18:13:00.210Z,100182.61
2019-04-04T18:15:29.422Z,100189.75
2019-04-04T18:17:58.429Z,100202.78
2019-04-04T18:20:27.706Z,100195.91
2019-04-04T18:22:57.355Z,100175.84
2019-04-04T18:25:26.452Z,100181.30
2019-04-04T18:27:55.473Z,100196.56
2019-04-04T18:30:24.610Z,100203.30
2019-04-04T18:32:53.602Z,100206.08
2019-04-04T18:35:23.154Z,100202.47
2019-04-04T18:37:52.253Z,100197.72
2019-04-04T18:40:21.549Z,100206.23
2019-04-04T18:42:53.460Z,100202.22
2019-04-04T18:47:49.930Z,100207.02
2019-04-04T18:50:19.096Z,100230.52
2019-04-04T18:52:48.119Z,100226.95
2019-04-04T18:55:19.864Z,100232.38
2019-04-04T18:57:48.424Z,100244.98
2019-04-04T19:00:18.703Z,100244.59
2019-04-04T19:02:47.923Z,100244.59
2019-04-04T19:05:17.116Z,100256.99
2019-04-04T19:07:46.204Z,100256.99
2019-04-04T19:10:15.706Z,100251.70
2019-04-04T19:12:46.048Z,100260.34
2019-04-04T19:15:15.355Z,100260.34
2019-04-04T19:17:44.451Z,100271.05
2019-04-04T19:20:13.900Z,100271.05
2019-04-04T19:22:42.969Z,100260.10
2019-04-04T19:25:15.242Z,100258.96
2019-04-04T19:27:44.305Z,100258.96
2019-04-04T19:30:15.558Z,100265.41
2019-04-04T19:32:44.610Z,100265.41
2019-04-04T19:35:14.259Z,100260.16
2019-04-04T19:37:43.373Z,100260.16
2019-04-04T19:40:12.942Z,100264.18
2019-04-04T19:42:43.067Z,100270.47
2019-04-04T19:45:12.773Z,100275.08
2019-04-04T19:47:41.830Z,100281.04
2019-04-04T19:50:11.669Z,100281.95
2019-04-04T19:52:40.766Z,100279.41
2019-04-04T19:55:10.191Z,100289.19
2019-04-04T19:57:39.326Z,100284.36
2019-04-04T20:00:09.644Z,100281.63
2019-04-04T20:02:38.731Z,100277.50
2019-04-04T20:05:08.040Z,100280.78
2019-04-04T20:07:38.234Z,100281.14
2019-04-04T20:10:07.685Z,100280.78
2019-04-04T20:12:36.731Z,100282.80
2019-04-04T20:15:06.649Z,100267.58
2019-04-04T20:17:35.843Z,100278.55
2019-04-04T20:20:06.721Z,100279.49
2019-04-04T20:22:35.864Z,100275.42
2019-04-04T20:25:05.241Z,100276.61
2019-04-04T20:27:34.381Z,100278.47
2019-04-04T20:30:03.546Z,100278.04
2019-04-04T20:32:32.552Z,100266.48
2019-04-04T20:35:01.729Z,100272.95
2019-04-04T20:37:30.763Z,100278.70
2019-04-04T20:39:59.913Z,100281.24
2019-04-04T20:45:03.661Z,100295.72
2019-04-04T20:47:33.855Z,100298.56
2019-04-04T20:50:03.085Z,100305.04
2019-04-04T20:52:32.183Z,100316.84
2019-04-04T20:55:01.152Z,100316.68
2019-04-04T20:57:30.322Z,100315.71
2019-04-04T20:59:59.425Z,100315.71
2019-04-04T21:05:03.201Z,100312.56
2019-04-04T21:07:32.246Z,100323.41
2019-04-04T21:10:02.771Z,100323.85
2019-04-04T21:12:31.816Z,100323.85
2019-04-04T21:15:01.173Z,100325.33
2019-04-04T21:17:30.149Z,100328.61
2019-04-04T21:19:59.327Z,100332.19
2019-04-04T21:22:28.374Z,100330.94
2019-04-04T21:24:57.470Z,100342.42
2019-04-04T21:27:26.483Z,100341.72
2019-04-04T21:29:55.470Z,100341.72
2019-04-04T21:32:24.611Z,100351.98
2019-04-04T21:34:53.704Z,100351.26
2019-04-04T21:37:22.846Z,100349.53
2019-04-04T21:39:51.809Z,100346.55
2019-04-04T21:42:20.816Z,100352.27
2019-04-04T21:44:49.843Z,100352.27
2019-04-04T21:47:18.831Z,100354.39
2019-04-04T21:49:49.180Z,100353.37
2019-04-04T21:52:18.295Z,100346.28
2019-04-04T21:54:47.295Z,100339.84
2019-04-04T21:57:16.390Z,100343.44
2019-04-04T21:59:45.479Z,100343.44
2019-04-04T22:02:14.811Z,100347.08
2019-04-04T22:04:44.009Z,100350.36
2019-04-04T22:07:13.151Z,100353.91
2019-04-04T22:09:42.330Z,100352.30
2019-04-04T22:12:11.368Z,100350.66
2019-04-04T22:14:40.497Z,100358.48
2019-04-04T22:17:09.619Z,100348.14
2019-04-04T22:19:38.649Z,100349.00
2019-04-04T22:22:07.686Z,100353.62
2019-04-04T22:24:36.730Z,100350.55
2019-04-04T22:27:05.933Z,100355.18
2019-04-04T22:29:34.913Z,100362.67
2019-04-04T22:32:03.996Z,100369.53
2019-04-04T22:34:32.998Z,100375.52
2019-04-04T22:37:01.975Z,100382.92
2019-04-04T22:39:30.975Z,100374.41
2019-04-04T22:44:35.333Z,100374.37
2019-04-04T22:47:04.464Z,100373.30
2019-04-04T22:49:33.500Z,100373.30
2019-04-04T22:52:02.520Z,100370.62
2019-04-04T22:54:31.502Z,100373.94
2019-04-04T22:57:00.536Z,100392.84
2019-04-04T22:59:29.551Z,100383.48
2019-04-04T23:01:58.597Z,100377.85
2019-04-04T23:04:27.607Z,100374.75
2019-04-04T23:06:56.709Z,100378.56
2019-04-04T23:09:25.845Z,100368.00
2019-04-04T23:11:54.861Z,100371.35
2019-04-04T23:14:23.970Z,100385.06
2019-04-04T23:16:52.991Z,100387.48
2019-04-04T23:19:22.155Z,100382.93
2019-04-04T23:21:51.148Z,100384.06
2019-04-04T23:24:20.209Z,100384.06
2019-04-04T23:26:49.195Z,100384.56
2019-04-04T23:29:18.197Z,100376.97
2019-04-04T23:31:47.201Z,100382.91
2019-04-04T23:34:16.242Z,100382.91
2019-04-04T23:36:45.271Z,100387.11
2019-04-04T23:39:14.325Z,100385.37
2019-04-04T23:41:43.426Z,100391.30
2019-04-04T23:44:12.497Z,100395.59
2019-04-04T23:46:41.506Z,100393.97
2019-04-04T23:49:10.673Z,100395.95
2019-04-04T23:51:39.763Z,100391.62
2019-04-04T23:54:08.895Z,100391.50
2019-04-04T23:56:37.954Z,100389.25
2019-04-04T23:59:06.965Z,100403.66
